sensor_id;sensor_type;location;lat;lon;timestamp;pressure;altitude;pressure_sealevel;temperature;humidity
21185;BME280;18176;49.502;11.754;2023-02-10T00:03:34;98705.94;;;-3.21;71.95
21185;BME280;18176;49.502;11.754;2023-02-10T00:07:34;98699.91;;;-3.34;72.77
21185;BME280;18176;49.502;11.754;2023-02-10T00:11:38;98708.06;;;-3.40;72.24
21185;BME280;18176;49.502;11.754;2023-02-10T00:15:51;98687.50;;;-3.56;71.98
21185;BME280;18176;49.502;11.754;2023-02-10T00:19:51;98702.75;;;-3.51;72.43
21185;BME280;18176;49.502;11.754;2023-02-10T00:23:54;98710.75;;;-3.54;72.19
21185;BME280;18176;49.502;11.754;2023-02-10T00:27:58;98703.66;;;-3.65;72.37
21185;BME280;18176;49.502;11.754;2023-02-10T00:31:58;98695.78;;;-3.64;72.46
21185;BME280;18176;49.502;11.754;2023-02-10T00:36:01;98701.16;;;-3.67;72.62
21185;BME280;18176;49.502;11.754;2023-02-10T00:40:03;98699.34;;;-3.79;72.52
21185;BME280;18176;49.502;11.754;2023-02-10T00:44:07;98704.72;;;-3.82;72.67
21185;BME280;18176;49.502;11.754;2023-02-10T00:48:07;98696.31;;;-3.85;72.79
21185;BME280;18176;49.502;11.754;2023-02-10T00:52:07;98698.13;;;-4.00;72.44
21185;BME280;18176;49.502;11.754;2023-02-10T00:56:09;98703.28;;;-4.00;71.97
21185;BME280;18176;49.502;11.754;2023-02-10T01:00:15;98712.09;;;-4.16;73.14
21185;BME280;18176;49.502;11.754;2023-02-10T01:04:16;98710.28;;;-4.14;72.20
21185;BME280;18176;49.502;11.754;2023-02-10T01:08:17;98708.72;;;-4.17;72.52
21185;BME280;18176;49.502;11.754;2023-02-10T01:12:18;98691.16;;;-4.26;71.77
21185;BME280;18176;49.502;11.754;2023-02-10T01:16:21;98706.13;;;-4.17;71.23
21185;BME280;18176;49.502;11.754;2023-02-10T01:20:22;98702.59;;;-4.16;71.63
21185;BME280;18176;49.502;11.754;2023-02-10T01:24:22;98702.59;;;-4.16;72.24
21185;BME280;18176;49.502;11.754;2023-02-10T01:28:22;98705.00;;;-4.27;71.85
21185;BME280;18176;49.502;11.754;2023-02-10T01:32:25;98709.19;;;-4.24;71.32
21185;BME280;18176;49.502;11.754;2023-02-10T01:36:26;98719.25;;;-4.34;70.91
21185;BME280;18176;49.502;11.754;2023-02-10T01:40:27;98725.38;;;-4.35;71.82
21185;BME280;18176;49.502;11.754;2023-02-10T01:49:24;98735.16;;;-4.40;70.95
21185;BME280;18176;49.502;11.754;2023-02-10T01:53:26;98726.09;;;-4.33;71.66
21185;BME280;18176;49.502;11.754;2023-02-10T01:57:29;98717.78;;;-4.38;70.90
21185;BME280;18176;49.502;11.754;2023-02-10T02:01:30;98717.78;;;-4.66;70.53
21185;BME280;18176;49.502;11.754;2023-02-10T02:05:38;98740.22;;;-4.53;71.05
21185;BME280;18176;49.502;11.754;2023-02-10T02:09:39;98746.78;;;-4.61;71.41
21185;BME280;18176;49.502;11.754;2023-02-10T02:14:00;98733.31;;;-4.66;71.52
21185;BME280;18176;49.502;11.754;2023-02-10T02:18:14;98733.69;;;-4.72;72.47
21185;BME280;18176;49.502;11.754;2023-02-10T02:23:05;98739.66;;;-4.72;72.06
21185;BME280;18176;49.502;11.754;2023-02-10T02:27:41;98746.59;;;-4.86;71.16
21185;BME280;18176;49.502;11.754;2023-02-10T02:31:59;98738.72;;;-4.85;71.85
21185;BME280;18176;49.502;11.754;2023-02-10T02:36:06;98733.94;;;-4.91;70.82
21185;BME280;18176;49.502;11.754;2023-02-10T02:40:12;98741.75;;;-4.92;70.26
21185;BME280;18176;49.502;11.754;2023-02-10T02:44:14;98746.75;;;-4.89;71.56
21185;BME280;18176;49.502;11.754;2023-02-10T02:48:40;98748.59;;;-4.91;70.89
21185;BME280;18176;49.502;11.754;2023-02-10T02:53:09;98744.59;;;-4.97;70.81
21185;BME280;18176;49.502;11.754;2023-02-10T02:57:19;98749.97;;;-5.00;70.03
21185;BME280;18176;49.502;11.754;2023-02-10T03:01:28;98753.88;;;-5.23;71.23
21185;BME280;18176;49.502;11.754;2023-02-10T03:05:33;98757.53;;;-5.27;71.30
21185;BME280;18176;49.502;11.754;2023-02-10T03:09:35;98758.63;;;-5.31;70.59
21185;BME280;18176;49.502;11.754;2023-02-10T03:13:35;98761.59;;;-5.37;71.41
21185;BME280;18176;49.502;11.754;2023-02-10T03:17:36;98764.38;;;-5.26;70.95
21185;BME280;18176;49.502;11.754;2023-02-10T03:21:39;98766.88;;;-5.24;70.62
21185;BME280;18176;49.502;11.754;2023-02-10T03:25:39;98766.38;;;-5.31;70.48
21185;BME280;18176;49.502;11.754;2023-02-10T03:29:39;98765.06;;;-5.38;70.06
21185;BME280;18176;49.502;11.754;2023-02-10T03:33:40;98762.72;;;-5.27;70.66
21185;BME280;18176;49.502;11.754;2023-02-10T03:37:43;98765.97;;;-5.23;70.33
21185;BME280;18176;49.502;11.754;2023-02-10T03:41:43;98760.06;;;-5.41;70.72
21185;BME280;18176;49.502;11.754;2023-02-10T03:45:44;98722.03;;;-5.69;70.02
21185;BME280;18176;49.502;11.754;2023-02-10T03:49:44;98766.44;;;-5.46;70.09
21185;BME280;18176;49.502;11.754;2023-02-10T03:53:48;98764.44;;;-5.41;69.61
21185;BME280;18176;49.502;11.754;2023-02-10T03:57:48;98775.66;;;-5.42;69.59
21185;BME280;18176;49.502;11.754;2023-02-10T04:01:49;98767.91;;;-5.42;69.13
21185;BME280;18176;49.502;11.754;2023-02-10T04:05:49;98785.34;;;-5.46;69.62
21185;BME280;18176;49.502;11.754;2023-02-10T04:09:53;98779.91;;;-5.57;69.55
21185;BME280;18176;49.502;11.754;2023-02-10T04:13:53;98789.78;;;-5.48;69.33
21185;BME280;18176;49.502;11.754;2023-02-10T04:17:54;98791.94;;;-5.56;69.55
21185;BME280;18176;49.502;11.754;2023-02-10T04:21:54;98789.50;;;-5.59;70.19
21185;BME280;18176;49.502;11.754;2023-02-10T04:25:59;98788.44;;;-5.55;69.50
21185;BME280;18176;49.502;11.754;2023-02-10T04:29:59;98799.06;;;-5.45;69.11
21185;BME280;18176;49.502;11.754;2023-02-10T04:34:03;98767.81;;;-5.86;69.71
21185;BME280;18176;49.502;11.754;2023-02-10T04:38:03;98814.59;;;-5.77;69.23
21185;BME280;18176;49.502;11.754;2023-02-10T04:42:07;98804.88;;;-5.87;69.56
21185;BME280;18176;49.502;11.754;2023-02-10T04:46:08;98816.25;;;-5.91;70.92
21185;BME280;18176;49.502;11.754;2023-02-10T04:50:08;98815.59;;;-5.95;70.36
21185;BME280;18176;49.502;11.754;2023-02-10T04:54:10;98817.50;;;-5.98;69.73
21185;BME280;18176;49.502;11.754;2023-02-10T04:58:13;98827.81;;;-5.98;70.10
21185;BME280;18176;49.502;11.754;2023-02-10T05:02:14;98824.59;;;-5.86;69.93
21185;BME280;18176;49.502;11.754;2023-02-10T05:06:15;98840.56;;;-5.80;70.08
21185;BME280;18176;49.502;11.754;2023-02-10T05:10:15;98826.00;;;-5.81;69.98
21185;BME280;18176;49.502;11.754;2023-02-10T05:14:19;98835.09;;;-5.74;69.33
21185;BME280;18176;49.502;11.754;2023-02-10T05:18:19;98838.06;;;-5.81;69.58
21185;BME280;18176;49.502;11.754;2023-02-10T05:22:21;98841.19;;;-5.90;69.76
21185;BME280;18176;49.502;11.754;2023-02-10T05:26:28;98840.66;;;-6.12;69.85
21185;BME280;18176;49.502;11.754;2023-02-10T05:30:32;98839.56;;;-6.08;69.98
21185;BME280;18176;49.502;11.754;2023-02-10T05:34:32;98794.09;;;-6.26;69.79
21185;BME280;18176;49.502;11.754;2023-02-10T05:38:33;98848.56;;;-6.00;69.67
21185;BME280;18176;49.502;11.754;2023-02-10T05:42:34;98850.03;;;-6.11;71.07
21185;BME280;18176;49.502;11.754;2023-02-10T05:46:37;98856.53;;;-6.04;70.40
21185;BME280;18176;49.502;11.754;2023-02-10T05:50:40;98856.94;;;-6.12;70.79
21185;BME280;18176;49.502;11.754;2023-02-10T05:54:43;98860.34;;;-6.11;70.33
21185;BME280;18176;49.502;11.754;2023-02-10T05:58:47;98865.38;;;-6.08;69.74
21185;BME280;18176;49.502;11.754;2023-02-10T06:02:51;98867.50;;;-6.16;69.48
21185;BME280;18176;49.502;11.754;2023-02-10T06:06:51;98873.84;;;-6.06;69.58
21185;BME280;18176;49.502;11.754;2023-02-10T06:10:52;98876.28;;;-6.03;69.18
21185;BME280;18176;49.502;11.754;2023-02-10T06:14:52;98879.03;;;-6.06;69.35
21185;BME280;18176;49.502;11.754;2023-02-10T06:18:56;98881.69;;;-6.08;68.87
21185;BME280;18176;49.502;11.754;2023-02-10T06:22:57;98894.66;;;-6.09;69.31
21185;BME280;18176;49.502;11.754;2023-02-10T06:26:57;98894.19;;;-5.85;71.15
21185;BME280;18176;49.502;11.754;2023-02-10T06:30:58;98896.56;;;-5.33;72.21
21185;BME280;18176;49.502;11.754;2023-02-10T06:35:05;98900.06;;;-5.19;71.04
21185;BME280;18176;49.502;11.754;2023-02-10T06:39:07;98904.88;;;-5.13;70.50
21185;BME280;18176;49.502;11.754;2023-02-10T06:43:07;98913.88;;;-5.20;69.67
21185;BME280;18176;49.502;11.754;2023-02-10T06:47:08;98921.56;;;-5.34;69.40
21185;BME280;18176;49.502;11.754;2023-02-10T06:51:11;98943.91;;;-5.33;69.44
21185;BME280;18176;49.502;11.754;2023-02-10T06:55:12;98941.72;;;-5.25;69.60
21185;BME280;18176;49.502;11.754;2023-02-10T06:59:13;98944.81;;;-5.03;69.15
21185;BME280;18176;49.502;11.754;2023-02-10T07:03:14;98951.56;;;-4.84;69.78
21185;BME280;18176;49.502;11.754;2023-02-10T07:07:18;98937.13;;;-4.43;76.46
21185;BME280;18176;49.502;11.754;2023-02-10T07:11:18;98953.00;;;-3.62;74.26
21185;BME280;18176;49.502;11.754;2023-02-10T07:15:19;98950.94;;;-3.28;73.03
21185;BME280;18176;49.502;11.754;2023-02-10T07:19:20;98921.25;;;-3.10;69.60
21185;BME280;18176;49.502;11.754;2023-02-10T07:23:23;98942.28;;;-2.74;70.01
21185;BME280;18176;49.502;11.754;2023-02-10T07:27:32;98924.94;;;-2.47;69.92
21185;BME280;18176;49.502;11.754;2023-02-10T07:31:33;98886.06;;;-2.61;68.30
21185;BME280;18176;49.502;11.754;2023-02-10T07:35:35;98919.75;;;-2.47;67.32
21185;BME280;18176;49.502;11.754;2023-02-10T07:39:38;98913.72;;;-2.47;66.69
21185;BME280;18176;49.502;11.754;2023-02-10T07:43:39;98910.41;;;-2.37;67.88
21185;BME280;18176;49.502;11.754;2023-02-10T07:47:44;98900.16;;;-2.26;66.94
21185;BME280;18176;49.502;11.754;2023-02-10T07:51:45;98905.88;;;-1.95;67.08
21185;BME280;18176;49.502;11.754;2023-02-10T07:55:49;98920.38;;;-1.30;66.16
21185;BME280;18176;49.502;11.754;2023-02-10T07:59:50;98921.72;;;-0.88;65.97
21185;BME280;18176;49.502;11.754;2023-02-10T08:03:51;98921.41;;;-0.60;65.00
21185;BME280;18176;49.502;11.754;2023-02-10T08:07:52;98924.63;;;-0.45;64.43
21185;BME280;18176;49.502;11.754;2023-02-10T08:11:55;98923.75;;;-0.33;64.81
21185;BME280;18176;49.502;11.754;2023-02-10T08:15:56;98931.72;;;-0.24;64.11
21185;BME280;18176;49.502;11.754;2023-02-10T08:19:56;98931.28;;;-0.41;63.03
21185;BME280;18176;49.502;11.754;2023-02-10T08:23:57;98939.06;;;-0.18;63.23
21185;BME280;18176;49.502;11.754;2023-02-10T08:28:01;98948.03;;;0.13;63.98
21185;BME280;18176;49.502;11.754;2023-02-10T08:32:01;98954.34;;;0.33;63.15
21185;BME280;18176;49.502;11.754;2023-02-10T08:36:04;98957.13;;;0.76;62.53
21185;BME280;18176;49.502;11.754;2023-02-10T08:40:06;98964.06;;;1.08;62.34
21185;BME280;18176;49.502;11.754;2023-02-10T08:44:11;98963.94;;;1.21;59.72
21185;BME280;18176;49.502;11.754;2023-02-10T08:48:12;98949.69;;;1.57;59.86
21185;BME280;18176;49.502;11.754;2023-02-10T08:52:13;98964.47;;;1.78;58.15
21185;BME280;18176;49.502;11.754;2023-02-10T08:56:17;98967.03;;;1.89;56.83
21185;BME280;18176;49.502;11.754;2023-02-10T09:00:20;98982.47;;;1.92;57.76
21185;BME280;18176;49.502;11.754;2023-02-10T09:04:22;98978.03;;;2.25;56.91
21185;BME280;18176;49.502;11.754;2023-02-10T09:08:23;98984.66;;;2.29;56.84
21185;BME280;18176;49.502;11.754;2023-02-10T09:12:25;98977.72;;;2.39;57.47
21185;BME280;18176;49.502;11.754;2023-02-10T09:16:28;98990.94;;;2.58;58.47
21185;BME280;18176;49.502;11.754;2023-02-10T09:20:29;98992.81;;;2.56;57.44
21185;BME280;18176;49.502;11.754;2023-02-10T09:24:30;98988.47;;;2.96;56.46
21185;BME280;18176;49.502;11.754;2023-02-10T09:28:31;98990.47;;;3.13;56.04
21185;BME280;18176;49.502;11.754;2023-02-10T09:32:38;98965.88;;;3.44;55.89
21185;BME280;18176;49.502;11.754;2023-02-10T09:36:39;98991.44;;;3.81;55.00
21185;BME280;18176;49.502;11.754;2023-02-10T09:40:50;98984.69;;;3.97;53.87
21185;BME280;18176;49.502;11.754;2023-02-10T09:45:01;98987.41;;;4.34;53.03
21185;BME280;18176;49.502;11.754;2023-02-10T09:49:25;98975.28;;;4.79;51.53
21185;BME280;18176;49.502;11.754;2023-02-10T09:53:31;98982.31;;;5.43;50.78
21185;BME280;18176;49.502;11.754;2023-02-10T09:57:41;98974.47;;;5.78;49.09
21185;BME280;18176;49.502;11.754;2023-02-10T10:01:48;98979.28;;;6.35;48.42
21185;BME280;18176;49.502;11.754;2023-02-10T10:06:04;98982.47;;;6.65;47.36
21185;BME280;18176;49.502;11.754;2023-02-10T10:10:18;98983.03;;;7.10;46.27
21185;BME280;18176;49.502;11.754;2023-02-10T10:14:25;98983.16;;;7.42;45.84
21185;BME280;18176;49.502;11.754;2023-02-10T10:18:37;98989.50;;;7.65;45.27
21185;BME280;18176;49.502;11.754;2023-02-10T10:22:56;98986.88;;;7.65;45.72
21185;BME280;18176;49.502;11.754;2023-02-10T10:27:19;98982.59;;;7.80;44.88
21185;BME280;18176;49.502;11.754;2023-02-10T10:31:30;98983.28;;;7.91;44.73
21185;BME280;18176;49.502;11.754;2023-02-10T10:35:41;98972.97;;;7.55;44.84
21185;BME280;18176;49.502;11.754;2023-02-10T10:39:50;98969.91;;;8.73;43.63
21185;BME280;18176;49.502;11.754;2023-02-10T10:43:55;98971.34;;;8.99;41.56
21185;BME280;18176;49.502;11.754;2023-02-10T10:48:06;98963.38;;;9.46;41.41
21185;BME280;18176;49.502;11.754;2023-02-10T10:52:26;98962.34;;;9.16;40.31
21185;BME280;18176;49.502;11.754;2023-02-10T10:56:42;98953.38;;;9.34;40.93
21185;BME280;18176;49.502;11.754;2023-02-10T11:00:50;98958.34;;;9.29;41.11
21185;BME280;18176;49.502;11.754;2023-02-10T11:05:04;98956.34;;;9.31;40.97
21185;BME280;18176;49.502;11.754;2023-02-10T11:09:20;98955.88;;;9.58;41.10
21185;BME280;18176;49.502;11.754;2023-02-10T11:13:28;98952.06;;;9.30;42.11
21185;BME280;18176;49.502;11.754;2023-02-10T11:17:35;98939.16;;;9.35;42.16
21185;BME280;18176;49.502;11.754;2023-02-10T11:21:39;98950.72;;;9.34;41.96
21185;BME280;18176;49.502;11.754;2023-02-10T11:25:46;98944.72;;;8.54;42.57
21185;BME280;18176;49.502;11.754;2023-02-10T11:29:58;98939.34;;;8.78;42.91
21185;BME280;18176;49.502;11.754;2023-02-10T11:34:03;98947.00;;;8.65;42.88
21185;BME280;18176;49.502;11.754;2023-02-10T11:38:16;98943.75;;;9.02;42.40
21185;BME280;18176;49.502;11.754;2023-02-10T11:42:21;98934.84;;;9.34;41.73
21185;BME280;18176;49.502;11.754;2023-02-10T11:46:29;98940.09;;;9.03;41.91
21185;BME280;18176;49.502;11.754;2023-02-10T11:50:34;98937.63;;;9.01;41.75
21185;BME280;18176;49.502;11.754;2023-02-10T11:54:37;98936.06;;;9.23;42.00
21185;BME280;18176;49.502;11.754;2023-02-10T11:58:59;98928.03;;;9.08;41.84
21185;BME280;18176;49.502;11.754;2023-02-10T12:03:53;98922.75;;;9.00;42.15
21185;BME280;18176;49.502;11.754;2023-02-10T12:08:13;98916.16;;;9.04;42.45
21185;BME280;18176;49.502;11.754;2023-02-10T12:12:26;98916.25;;;9.50;41.51
21185;BME280;18176;49.502;11.754;2023-02-10T12:16:41;98913.00;;;9.62;41.29
21185;BME280;18176;49.502;11.754;2023-02-10T12:21:05;98914.97;;;9.68;41.20
21185;BME280;18176;49.502;11.754;2023-02-10T12:25:16;98907.66;;;9.93;41.12
21185;BME280;18176;49.502;11.754;2023-02-10T12:29:39;98914.25;;;9.97;40.99
21185;BME280;18176;49.502;11.754;2023-02-10T12:38:49;98899.91;;;10.14;40.46
21185;BME280;18176;49.502;11.754;2023-02-10T12:43:02;98893.31;;;10.10;40.86
21185;BME280;18176;49.502;11.754;2023-02-10T12:47:26;98892.00;;;10.43;40.55
21185;BME280;18176;49.502;11.754;2023-02-10T12:51:48;98883.53;;;10.33;40.18
21185;BME280;18176;49.502;11.754;2023-02-10T12:56:00;98881.41;;;10.06;40.44
21185;BME280;18176;49.502;11.754;2023-02-10T13:00:08;98883.53;;;9.88;40.58
21185;BME280;18176;49.502;11.754;2023-02-10T13:04:21;98883.03;;;9.70;40.81
21185;BME280;18176;49.502;11.754;2023-02-10T13:08:29;98863.03;;;9.14;41.98
21185;BME280;18176;49.502;11.754;2023-02-10T13:12:39;98859.25;;;9.08;42.22
21185;BME280;18176;49.502;11.754;2023-02-10T13:16:46;98863.31;;;9.27;42.34
21185;BME280;18176;49.502;11.754;2023-02-10T13:21:00;98835.75;;;8.20;42.69
21185;BME280;18176;49.502;11.754;2023-02-10T13:25:13;98869.13;;;8.05;43.96
21185;BME280;18176;49.502;11.754;2023-02-10T13:29:30;98875.56;;;7.70;44.98
21185;BME280;18176;49.502;11.754;2023-02-10T13:33:46;98872.59;;;7.81;45.15
21185;BME280;18176;49.502;11.754;2023-02-10T13:37:51;98874.88;;;7.92;44.99
21185;BME280;18176;49.502;11.754;2023-02-10T13:42:09;98879.03;;;7.78;45.30
21185;BME280;18176;49.502;11.754;2023-02-10T13:46:27;98870.13;;;7.79;45.15
21185;BME280;18176;49.502;11.754;2023-02-10T13:50:37;98867.00;;;7.84;45.19
21185;BME280;18176;49.502;11.754;2023-02-10T13:54:56;98872.44;;;7.66;45.76
21185;BME280;18176;49.502;11.754;2023-02-10T13:58:59;98875.06;;;7.66;45.71
21185;BME280;18176;49.502;11.754;2023-02-10T14:03:21;98885.94;;;7.71;45.82
21185;BME280;18176;49.502;11.754;2023-02-10T14:07:35;98878.69;;;7.65;46.17
21185;BME280;18176;49.502;11.754;2023-02-10T14:11:41;98885.97;;;7.05;47.21
21185;BME280;18176;49.502;11.754;2023-02-10T14:15:56;98884.72;;;6.84;47.90
21185;BME280;18176;49.502;11.754;2023-02-10T14:20:13;98885.72;;;6.83;48.24
21185;BME280;18176;49.502;11.754;2023-02-10T14:24:18;98887.19;;;6.44;49.16
21185;BME280;18176;49.502;11.754;2023-02-10T14:28:29;98872.38;;;6.17;49.42
21185;BME280;18176;49.502;11.754;2023-02-10T14:32:31;98876.47;;;6.19;50.13
21185;BME280;18176;49.502;11.754;2023-02-10T14:36:36;98875.22;;;6.23;50.16
21185;BME280;18176;49.502;11.754;2023-02-10T14:40:37;98870.09;;;6.48;50.05
21185;BME280;18176;49.502;11.754;2023-02-10T14:44:43;98869.47;;;6.54;50.16
21185;BME280;18176;49.502;11.754;2023-02-10T14:48:46;98869.53;;;6.70;49.71
21185;BME280;18176;49.502;11.754;2023-02-10T14:52:50;98878.31;;;6.45;50.45
21185;BME280;18176;49.502;11.754;2023-02-10T14:56:55;98864.28;;;6.70;50.34
21185;BME280;18176;49.502;11.754;2023-02-10T15:01:10;98878.19;;;6.88;50.09
21185;BME280;18176;49.502;11.754;2023-02-10T15:05:19;98881.94;;;6.52;51.23
21185;BME280;18176;49.502;11.754;2023-02-10T15:09:28;98884.56;;;6.44;51.25
21185;BME280;18176;49.502;11.754;2023-02-10T15:13:36;98881.25;;;6.42;51.91
21185;BME280;18176;49.502;11.754;2023-02-10T15:17:46;98863.19;;;6.55;51.68
21185;BME280;18176;49.502;11.754;2023-02-10T15:21:48;98887.22;;;6.52;52.73
21185;BME280;18176;49.502;11.754;2023-02-10T15:26:05;98885.69;;;6.15;53.52
21185;BME280;18176;49.502;11.754;2023-02-10T15:30:08;98889.34;;;6.22;53.81
21185;BME280;18176;49.502;11.754;2023-02-10T15:34:17;98887.22;;;6.85;52.09
21185;BME280;18176;49.502;11.754;2023-02-10T15:38:18;98881.31;;;7.49;50.66
21185;BME280;18176;49.502;11.754;2023-02-10T15:42:27;98881.50;;;8.04;49.67
21185;BME280;18176;49.502;11.754;2023-02-10T15:46:30;98872.09;;;7.86;49.39
21185;BME280;18176;49.502;11.754;2023-02-10T15:50:32;98869.78;;;7.50;49.99
21185;BME280;18176;49.502;11.754;2023-02-10T15:54:35;98870.75;;;7.49;50.23
21185;BME280;18176;49.502;11.754;2023-02-10T15:58:38;98875.97;;;7.09;51.32
21185;BME280;18176;49.502;11.754;2023-02-10T16:02:39;98852.78;;;6.79;52.49
21185;BME280;18176;49.502;11.754;2023-02-10T16:06:39;98872.25;;;6.94;52.47
21185;BME280;18176;49.502;11.754;2023-02-10T16:10:41;98863.38;;;6.95;52.77
21185;BME280;18176;49.502;11.754;2023-02-10T16:14:44;98867.25;;;6.75;53.63
21185;BME280;18176;49.502;11.754;2023-02-10T16:18:45;98865.75;;;6.38;54.34
21185;BME280;18176;49.502;11.754;2023-02-10T16:22:46;98870.19;;;5.87;56.31
21185;BME280;18176;49.502;11.754;2023-02-10T16:26:47;98866.94;;;5.75;57.04
21185;BME280;18176;49.502;11.754;2023-02-10T16:30:50;98865.88;;;5.68;57.62
21185;BME280;18176;49.502;11.754;2023-02-10T16:34:51;98863.88;;;5.44;58.15
21185;BME280;18176;49.502;11.754;2023-02-10T16:38:52;98874.28;;;5.19;58.77
21185;BME280;18176;49.502;11.754;2023-02-10T16:42:59;98874.16;;;5.38;58.28
21185;BME280;18176;49.502;11.754;2023-02-10T16:47:02;98872.81;;;4.89;59.37
21185;BME280;18176;49.502;11.754;2023-02-10T16:51:03;98882.28;;;4.72;59.92
21185;BME280;18176;49.502;11.754;2023-02-10T16:55:05;98893.22;;;4.31;60.93
21185;BME280;18176;49.502;11.754;2023-02-10T16:59:07;98888.03;;;4.12;62.28
21185;BME280;18176;49.502;11.754;2023-02-10T17:03:10;98895.09;;;3.83;62.72
21185;BME280;18176;49.502;11.754;2023-02-10T17:07:11;98900.66;;;3.80;63.13
21185;BME280;18176;49.502;11.754;2023-02-10T17:11:13;98905.72;;;3.62;64.25
21185;BME280;18176;49.502;11.754;2023-02-10T17:15:15;98906.81;;;3.50;64.25
21185;BME280;18176;49.502;11.754;2023-02-10T17:19:20;98893.44;;;3.43;65.39
21185;BME280;18176;49.502;11.754;2023-02-10T17:23:24;98898.13;;;3.30;67.14
21185;BME280;18176;49.502;11.754;2023-02-10T17:27:25;98889.56;;;3.19;67.56
21185;BME280;18176;49.502;11.754;2023-02-10T17:31:25;98892.06;;;3.11;67.04
21185;BME280;18176;49.502;11.754;2023-02-10T17:35:28;98891.59;;;2.96;66.98
21185;BME280;18176;49.502;11.754;2023-02-10T17:39:29;98891.53;;;2.77;67.37
21185;BME280;18176;49.502;11.754;2023-02-10T17:43:36;98899.22;;;2.69;68.43
21185;BME280;18176;49.502;11.754;2023-02-10T17:47:37;98907.19;;;2.67;68.66
21185;BME280;18176;49.502;11.754;2023-02-10T17:51:41;98894.25;;;2.66;67.98
21185;BME280;18176;49.502;11.754;2023-02-10T17:55:42;98907.44;;;2.55;68.64
21185;BME280;18176;49.502;11.754;2023-02-10T17:59:42;98903.84;;;2.56;68.31
21185;BME280;18176;49.502;11.754;2023-02-10T18:03:43;98896.91;;;2.45;70.28
21185;BME280;18176;49.502;11.754;2023-02-10T18:07:46;98903.84;;;2.56;69.50
21185;BME280;18176;49.502;11.754;2023-02-10T18:11:46;98907.44;;;2.55;69.36
21185;BME280;18176;49.502;11.754;2023-02-10T18:15:47;98902.28;;;2.44;68.88
21185;BME280;18176;49.502;11.754;2023-02-10T18:19:48;98908.81;;;2.29;68.86
21185;BME280;18176;49.502;11.754;2023-02-10T18:23:52;98916.78;;;2.27;69.22
21185;BME280;18176;49.502;11.754;2023-02-10T18:27:53;98915.03;;;2.28;69.65
21185;BME280;18176;49.502;11.754;2023-02-10T18:31:53;98917.50;;;2.29;69.06
21185;BME280;18176;49.502;11.754;2023-02-10T18:35:55;98927.66;;;2.23;69.27
21185;BME280;18176;49.502;11.754;2023-02-10T18:39:58;98908.66;;;2.21;69.03
21185;BME280;18176;49.502;11.754;2023-02-10T18:43:59;98920.06;;;1.99;71.28
21185;BME280;18176;49.502;11.754;2023-02-10T18:48:00;98910.81;;;2.16;70.08
21185;BME280;18176;49.502;11.754;2023-02-10T18:52:01;98906.19;;;2.29;69.27
21185;BME280;18176;49.502;11.754;2023-02-10T18:56:06;98909.41;;;2.11;69.93
21185;BME280;18176;49.502;11.754;2023-02-10T19:00:09;98902.97;;;1.95;70.00
21185;BME280;18176;49.502;11.754;2023-02-10T19:04:10;98911.66;;;1.75;71.41
21185;BME280;18176;49.502;11.754;2023-02-10T19:08:10;98916.22;;;1.82;72.06
21185;BME280;18176;49.502;11.754;2023-02-10T19:12:14;98917.56;;;1.97;71.99
21185;BME280;18176;49.502;11.754;2023-02-10T19:16:15;98898.63;;;2.05;71.75
21185;BME280;18176;49.502;11.754;2023-02-10T19:20:16;98888.28;;;2.24;70.96
21185;BME280;18176;49.502;11.754;2023-02-10T19:24:17;98907.22;;;2.17;71.70
21185;BME280;18176;49.502;11.754;2023-02-10T19:28:20;98908.38;;;2.24;71.31
21185;BME280;18176;49.502;11.754;2023-02-10T19:32:21;98881.81;;;1.98;71.59
21185;BME280;18176;49.502;11.754;2023-02-10T19:36:24;98917.50;;;2.08;71.82
21185;BME280;18176;49.502;11.754;2023-02-10T19:40:25;98916.19;;;1.93;72.43
21185;BME280;18176;49.502;11.754;2023-02-10T19:44:29;98899.34;;;1.86;72.79
21185;BME280;18176;49.502;11.754;2023-02-10T19:48:31;98895.88;;;1.65;72.36
21185;BME280;18176;49.502;11.754;2023-02-10T19:52:31;98906.69;;;1.40;72.61
21185;BME280;18176;49.502;11.754;2023-02-10T19:56:35;98903.38;;;1.38;72.08
21185;BME280;18176;49.502;11.754;2023-02-10T20:00:40;98900.13;;;1.03;73.02
21185;BME280;18176;49.502;11.754;2023-02-10T20:04:41;98918.19;;;1.06;73.55
21185;BME280;18176;49.502;11.754;2023-02-10T20:08:42;98911.78;;;0.99;74.44
21185;BME280;18176;49.502;11.754;2023-02-10T20:12:42;98904.38;;;1.04;74.09
21185;BME280;18176;49.502;11.754;2023-02-10T20:16:45;98896.59;;;0.93;73.57
21185;BME280;18176;49.502;11.754;2023-02-10T20:20:49;98887.13;;;0.92;73.17
21185;BME280;18176;49.502;11.754;2023-02-10T20:24:49;98879.66;;;0.76;74.36
21185;BME280;18176;49.502;11.754;2023-02-10T20:28:50;98872.44;;;0.68;74.91
21185;BME280;18176;49.502;11.754;2023-02-10T20:32:53;98870.44;;;0.61;74.72
21185;BME280;18176;49.502;11.754;2023-02-10T20:36:54;98861.53;;;0.63;76.06
21185;BME280;18176;49.502;11.754;2023-02-10T20:41:00;98858.09;;;0.63;75.97
21185;BME280;18176;49.502;11.754;2023-02-10T20:45:05;98873.19;;;0.48;76.28
21185;BME280;18176;49.502;11.754;2023-02-10T20:49:09;98860.38;;;0.45;74.68
21185;BME280;18176;49.502;11.754;2023-02-10T20:53:10;98863.44;;;0.28;74.97
21185;BME280;18176;49.502;11.754;2023-02-10T20:57:10;98872.69;;;0.43;75.82
21185;BME280;18176;49.502;11.754;2023-02-10T21:01:14;98867.94;;;0.37;75.21
21185;BME280;18176;49.502;11.754;2023-02-10T21:05:17;98865.81;;;0.20;75.81
21185;BME280;18176;49.502;11.754;2023-02-10T21:09:18;98865.69;;;0.11;75.81
21185;BME280;18176;49.502;11.754;2023-02-10T21:13:18;98851.47;;;0.15;75.90
21185;BME280;18176;49.502;11.754;2023-02-10T21:17:19;98848.03;;;0.03;75.66
21185;BME280;18176;49.502;11.754;2023-02-10T21:21:22;98854.28;;;-0.11;75.75
21185;BME280;18176;49.502;11.754;2023-02-10T21:25:23;98855.38;;;-0.02;75.89
21185;BME280;18176;49.502;11.754;2023-02-10T21:29:23;98848.94;;;-0.09;75.19
21185;BME280;18176;49.502;11.754;2023-02-10T21:33:25;98852.38;;;-0.20;75.54
21185;BME280;18176;49.502;11.754;2023-02-10T21:37:28;98849.22;;;-0.12;74.65
21185;BME280;18176;49.502;11.754;2023-02-10T21:41:29;98848.44;;;-0.25;75.00